PNT weather

Tte. Julio Gallardo Airport
Puerto Natales, Magallanes Region, Chile

Public forecast

Using degrees Celsius for public forecast. Weather courtesy of forecast.io.

METAR (pilot weather report)

Report is more than 6 hours old.

Retrieved 2019/08/23 19:00 UTC (1 day ago):

SCNT 231900Z 19004KT 140V230 9999 FEW040 09/03 Q1003

TAF (pilot weather forecast)

Forecast is more than 12 hours old.

Retrieved 2019/08/23 12:00 UTC (1 day ago):

TAF SCNT 231032Z 2312/2400 07005KT 9999 SCT030 TN03/2312Z TX08/2318Z PROB40 TEMPO 2312/2315 SCT005